sensor_id;sensor_type;location;lat;lon;timestamp;temperature;humidity
12688;DHT22;6408;59.388;17.798;2022-09-09T00:00:58;10.30;99.90
12688;DHT22;6408;59.388;17.798;2022-09-09T00:03:29;10.40;99.90
12688;DHT22;6408;59.388;17.798;2022-09-09T00:06:03;10.30;99.90
12688;DHT22;6408;59.388;17.798;2022-09-09T00:08:40;10.40;99.90
12688;DHT22;6408;59.388;17.798;2022-09-09T00:11:12;10.40;99.90
12688;DHT22;6408;59.388;17.798;2022-09-09T00:13:46;10.40;99.90
12688;DHT22;6408;59.388;17.798;2022-09-09T00:16:18;10.40;99.90
12688;DHT22;6408;59.388;17.798;2022-09-09T00:18:53;10.50;99.90
12688;DHT22;6408;59.388;17.798;2022-09-09T00:21:25;10.50;99.90
12688;DHT22;6408;59.388;17.798;2022-09-09T00:23:55;10.50;99.90
12688;DHT22;6408;59.388;17.798;2022-09-09T00:26:30;10.50;99.90
12688;DHT22;6408;59.388;17.798;2022-09-09T00:29:05;10.50;99.90
12688;DHT22;6408;59.388;17.798;2022-09-09T00:31:36;10.50;99.90
12688;DHT22;6408;59.388;17.798;2022-09-09T00:34:11;10.60;99.90
12688;DHT22;6408;59.388;17.798;2022-09-09T00:36:40;10.60;99.90
12688;DHT22;6408;59.388;17.798;2022-09-09T00:39:12;10.60;99.90
12688;DHT22;6408;59.388;17.798;2022-09-09T00:41:50;10.60;99.90
12688;DHT22;6408;59.388;17.798;2022-09-09T00:44:31;10.60;99.90
12688;DHT22;6408;59.388;17.798;2022-09-09T00:47:10;10.70;99.90
12688;DHT22;6408;59.388;17.798;2022-09-09T00:49:49;10.70;99.90
12688;DHT22;6408;59.388;17.798;2022-09-09T00:52:28;10.70;99.90
12688;DHT22;6408;59.388;17.798;2022-09-09T00:55:03;10.70;99.90
12688;DHT22;6408;59.388;17.798;2022-09-09T00:57:33;10.70;99.90
12688;DHT22;6408;59.388;17.798;2022-09-09T01:00:20;10.70;99.90
12688;DHT22;6408;59.388;17.798;2022-09-09T01:03:07;10.70;99.90
12688;DHT22;6408;59.388;17.798;2022-09-09T01:05:44;10.70;99.90
12688;DHT22;6408;59.388;17.798;2022-09-09T01:11:03;10.70;99.90
12688;DHT22;6408;59.388;17.798;2022-09-09T01:13:33;10.80;99.90
12688;DHT22;6408;59.388;17.798;2022-09-09T01:16:04;10.80;99.90
12688;DHT22;6408;59.388;17.798;2022-09-09T01:18:37;10.90;99.90
12688;DHT22;6408;59.388;17.798;2022-09-09T01:21:15;10.80;99.90
12688;DHT22;6408;59.388;17.798;2022-09-09T01:24:03;10.90;99.90
12688;DHT22;6408;59.388;17.798;2022-09-09T01:26:34;10.90;99.90
12688;DHT22;6408;59.388;17.798;2022-09-09T01:29:02;10.90;99.90
12688;DHT22;6408;59.388;17.798;2022-09-09T01:31:32;10.90;99.90
12688;DHT22;6408;59.388;17.798;2022-09-09T01:34:04;11.00;99.90
12688;DHT22;6408;59.388;17.798;2022-09-09T01:36:39;11.00;99.90
12688;DHT22;6408;59.388;17.798;2022-09-09T01:39:07;11.00;99.90
12688;DHT22;6408;59.388;17.798;2022-09-09T01:41:36;11.00;99.90
12688;DHT22;6408;59.388;17.798;2022-09-09T01:44:03;11.10;99.90
12688;DHT22;6408;59.388;17.798;2022-09-09T01:46:31;11.10;99.90
12688;DHT22;6408;59.388;17.798;2022-09-09T01:48:59;11.10;99.90
12688;DHT22;6408;59.388;17.798;2022-09-09T01:51:30;11.10;99.90
12688;DHT22;6408;59.388;17.798;2022-09-09T01:53:58;11.10;99.90
12688;DHT22;6408;59.388;17.798;2022-09-09T01:56:38;11.10;99.90
12688;DHT22;6408;59.388;17.798;2022-09-09T01:59:17;11.10;99.90
12688;DHT22;6408;59.388;17.798;2022-09-09T02:01:58;11.10;99.90
12688;DHT22;6408;59.388;17.798;2022-09-09T02:04:38;11.10;99.90
12688;DHT22;6408;59.388;17.798;2022-09-09T02:07:28;11.10;99.90
12688;DHT22;6408;59.388;17.798;2022-09-09T02:10:03;11.10;99.90
12688;DHT22;6408;59.388;17.798;2022-09-09T02:12:33;11.10;99.90
12688;DHT22;6408;59.388;17.798;2022-09-09T02:15:03;11.10;99.90
12688;DHT22;6408;59.388;17.798;2022-09-09T02:17:34;11.20;99.90
12688;DHT22;6408;59.388;17.798;2022-09-09T02:20:08;11.20;99.90
12688;DHT22;6408;59.388;17.798;2022-09-09T02:22:37;11.30;99.90
12688;DHT22;6408;59.388;17.798;2022-09-09T02:25:08;11.30;99.90
12688;DHT22;6408;59.388;17.798;2022-09-09T02:27:37;11.20;99.90
12688;DHT22;6408;59.388;17.798;2022-09-09T02:30:07;11.20;99.90
12688;DHT22;6408;59.388;17.798;2022-09-09T02:32:36;11.30;99.90
12688;DHT22;6408;59.388;17.798;2022-09-09T02:35:08;11.30;99.90
12688;DHT22;6408;59.388;17.798;2022-09-09T02:37:39;11.30;99.90
12688;DHT22;6408;59.388;17.798;2022-09-09T02:40:09;11.30;99.90
12688;DHT22;6408;59.388;17.798;2022-09-09T02:42:40;11.30;99.90
12688;DHT22;6408;59.388;17.798;2022-09-09T02:45:08;11.30;99.90
12688;DHT22;6408;59.388;17.798;2022-09-09T02:47:38;11.30;99.90
12688;DHT22;6408;59.388;17.798;2022-09-09T02:50:12;11.40;99.90
12688;DHT22;6408;59.388;17.798;2022-09-09T02:52:47;11.30;99.90
12688;DHT22;6408;59.388;17.798;2022-09-09T02:55:23;11.40;99.90
12688;DHT22;6408;59.388;17.798;2022-09-09T02:57:53;11.30;99.90
12688;DHT22;6408;59.388;17.798;2022-09-09T03:00:27;11.30;99.90
12688;DHT22;6408;59.388;17.798;2022-09-09T03:02:55;11.40;99.90
12688;DHT22;6408;59.388;17.798;2022-09-09T03:05:23;11.40;99.90
12688;DHT22;6408;59.388;17.798;2022-09-09T03:07:51;11.40;99.90
12688;DHT22;6408;59.388;17.798;2022-09-09T03:10:18;11.40;99.90
12688;DHT22;6408;59.388;17.798;2022-09-09T03:12:45;11.30;99.90
12688;DHT22;6408;59.388;17.798;2022-09-09T03:15:13;11.40;99.90
12688;DHT22;6408;59.388;17.798;2022-09-09T03:17:41;11.40;99.90
12688;DHT22;6408;59.388;17.798;2022-09-09T03:20:08;11.40;99.90
12688;DHT22;6408;59.388;17.798;2022-09-09T03:22:36;11.40;99.90
12688;DHT22;6408;59.388;17.798;2022-09-09T03:25:03;11.40;99.90
12688;DHT22;6408;59.388;17.798;2022-09-09T03:27:31;11.40;99.90
12688;DHT22;6408;59.388;17.798;2022-09-09T03:29:58;11.40;99.90
12688;DHT22;6408;59.388;17.798;2022-09-09T03:32:30;11.40;99.90
12688;DHT22;6408;59.388;17.798;2022-09-09T03:34:58;11.40;99.90
12688;DHT22;6408;59.388;17.798;2022-09-09T03:37:25;11.30;99.90
12688;DHT22;6408;59.388;17.798;2022-09-09T03:39:52;11.30;99.90
12688;DHT22;6408;59.388;17.798;2022-09-09T03:42:20;11.30;99.90
12688;DHT22;6408;59.388;17.798;2022-09-09T03:44:47;11.40;99.90
12688;DHT22;6408;59.388;17.798;2022-09-09T03:47:16;11.40;99.90
12688;DHT22;6408;59.388;17.798;2022-09-09T03:49:46;11.40;99.90
12688;DHT22;6408;59.388;17.798;2022-09-09T03:52:14;11.30;99.90
12688;DHT22;6408;59.388;17.798;2022-09-09T03:54:41;11.30;99.90
12688;DHT22;6408;59.388;17.798;2022-09-09T03:57:10;11.30;99.90
12688;DHT22;6408;59.388;17.798;2022-09-09T03:59:38;11.30;99.90
12688;DHT22;6408;59.388;17.798;2022-09-09T04:02:05;11.40;99.90
12688;DHT22;6408;59.388;17.798;2022-09-09T04:04:32;11.40;99.90
12688;DHT22;6408;59.388;17.798;2022-09-09T04:07:02;11.30;99.90
12688;DHT22;6408;59.388;17.798;2022-09-09T04:09:31;11.40;99.90
12688;DHT22;6408;59.388;17.798;2022-09-09T04:11:58;11.30;99.90
12688;DHT22;6408;59.388;17.798;2022-09-09T04:14:26;11.40;99.90
12688;DHT22;6408;59.388;17.798;2022-09-09T04:16:54;11.40;99.90
12688;DHT22;6408;59.388;17.798;2022-09-09T04:19:23;11.40;99.90
12688;DHT22;6408;59.388;17.798;2022-09-09T04:21:51;11.40;99.90
12688;DHT22;6408;59.388;17.798;2022-09-09T04:24:21;11.40;99.90
12688;DHT22;6408;59.388;17.798;2022-09-09T04:26:48;11.40;99.90
12688;DHT22;6408;59.388;17.798;2022-09-09T04:29:16;11.50;99.90
12688;DHT22;6408;59.388;17.798;2022-09-09T04:31:43;11.50;99.90
12688;DHT22;6408;59.388;17.798;2022-09-09T04:34:11;11.50;99.90
12688;DHT22;6408;59.388;17.798;2022-09-09T04:36:38;11.50;99.90
12688;DHT22;6408;59.388;17.798;2022-09-09T04:39:07;11.60;99.90
12688;DHT22;6408;59.388;17.798;2022-09-09T04:41:35;11.60;99.90
12688;DHT22;6408;59.388;17.798;2022-09-09T04:44:04;11.60;99.90
12688;DHT22;6408;59.388;17.798;2022-09-09T04:46:37;11.60;99.90
12688;DHT22;6408;59.388;17.798;2022-09-09T04:49:04;11.60;99.90
12688;DHT22;6408;59.388;17.798;2022-09-09T04:51:32;11.60;99.90
12688;DHT22;6408;59.388;17.798;2022-09-09T04:53:59;11.60;99.90
12688;DHT22;6408;59.388;17.798;2022-09-09T04:56:26;11.70;99.90
12688;DHT22;6408;59.388;17.798;2022-09-09T04:58:57;11.70;99.90
12688;DHT22;6408;59.388;17.798;2022-09-09T05:01:25;11.80;99.90
12688;DHT22;6408;59.388;17.798;2022-09-09T05:03:54;11.80;99.90
12688;DHT22;6408;59.388;17.798;2022-09-09T05:06:22;12.00;99.90
12688;DHT22;6408;59.388;17.798;2022-09-09T05:08:49;12.10;99.90
12688;DHT22;6408;59.388;17.798;2022-09-09T05:11:18;12.10;99.90
12688;DHT22;6408;59.388;17.798;2022-09-09T05:13:51;12.20;99.90
12688;DHT22;6408;59.388;17.798;2022-09-09T05:16:24;12.20;99.90
12688;DHT22;6408;59.388;17.798;2022-09-09T05:18:55;12.30;99.90
12688;DHT22;6408;59.388;17.798;2022-09-09T05:21:23;12.40;99.90
12688;DHT22;6408;59.388;17.798;2022-09-09T05:23:52;12.50;99.90
12688;DHT22;6408;59.388;17.798;2022-09-09T05:26:26;12.50;99.90
12688;DHT22;6408;59.388;17.798;2022-09-09T05:28:56;12.60;99.90
12688;DHT22;6408;59.388;17.798;2022-09-09T05:32:08;12.70;99.90
12688;DHT22;6408;59.388;17.798;2022-09-09T05:34:42;12.80;99.90
12688;DHT22;6408;59.388;17.798;2022-09-09T05:37:24;12.90;99.90
12688;DHT22;6408;59.388;17.798;2022-09-09T05:39:51;13.30;99.90
12688;DHT22;6408;59.388;17.798;2022-09-09T05:42:18;13.50;99.90
12688;DHT22;6408;59.388;17.798;2022-09-09T05:45:02;13.60;99.90
12688;DHT22;6408;59.388;17.798;2022-09-09T05:47:35;13.80;99.90
12688;DHT22;6408;59.388;17.798;2022-09-09T05:50:03;14.70;99.90
12688;DHT22;6408;59.388;17.798;2022-09-09T05:52:30;18.50;99.90
12688;DHT22;6408;59.388;17.798;2022-09-09T05:54:58;22.20;99.90
12688;DHT22;6408;59.388;17.798;2022-09-09T05:57:25;21.50;99.90
12688;DHT22;6408;59.388;17.798;2022-09-09T05:59:53;24.20;99.90
12688;DHT22;6408;59.388;17.798;2022-09-09T06:02:20;23.50;99.90
12688;DHT22;6408;59.388;17.798;2022-09-09T06:04:51;21.20;99.90
12688;DHT22;6408;59.388;17.798;2022-09-09T06:07:18;19.90;99.90
12688;DHT22;6408;59.388;17.798;2022-09-09T06:09:45;23.80;99.90
12688;DHT22;6408;59.388;17.798;2022-09-09T06:12:13;26.70;99.30
12688;DHT22;6408;59.388;17.798;2022-09-09T06:14:40;25.30;98.90
12688;DHT22;6408;59.388;17.798;2022-09-09T06:17:07;26.30;97.90
12688;DHT22;6408;59.388;17.798;2022-09-09T06:19:34;28.60;95.10
12688;DHT22;6408;59.388;17.798;2022-09-09T06:22:03;30.30;93.00
12688;DHT22;6408;59.388;17.798;2022-09-09T06:24:30;30.60;91.20
12688;DHT22;6408;59.388;17.798;2022-09-09T06:26:58;31.40;89.40
12688;DHT22;6408;59.388;17.798;2022-09-09T06:29:25;31.20;87.40
12688;DHT22;6408;59.388;17.798;2022-09-09T06:31:53;30.60;86.30
12688;DHT22;6408;59.388;17.798;2022-09-09T06:34:21;30.50;85.20
12688;DHT22;6408;59.388;17.798;2022-09-09T06:36:49;30.70;83.80
12688;DHT22;6408;59.388;17.798;2022-09-09T06:39:18;31.60;82.60
12688;DHT22;6408;59.388;17.798;2022-09-09T06:41:46;32.20;80.40
12688;DHT22;6408;59.388;17.798;2022-09-09T06:44:15;31.70;79.10
12688;DHT22;6408;59.388;17.798;2022-09-09T06:46:42;32.20;80.40
12688;DHT22;6408;59.388;17.798;2022-09-09T06:49:13;32.80;79.30
12688;DHT22;6408;59.388;17.798;2022-09-09T06:51:40;33.60;76.50
12688;DHT22;6408;59.388;17.798;2022-09-09T06:54:08;33.40;76.90
12688;DHT22;6408;59.388;17.798;2022-09-09T06:56:38;34.50;75.90
12688;DHT22;6408;59.388;17.798;2022-09-09T06:59:07;33.30;76.90
12688;DHT22;6408;59.388;17.798;2022-09-09T07:01:36;31.10;77.50
12688;DHT22;6408;59.388;17.798;2022-09-09T07:04:04;30.00;80.10
12688;DHT22;6408;59.388;17.798;2022-09-09T07:06:35;31.30;78.90
12688;DHT22;6408;59.388;17.798;2022-09-09T07:09:04;31.10;76.20
12688;DHT22;6408;59.388;17.798;2022-09-09T07:11:33;32.00;74.60
12688;DHT22;6408;59.388;17.798;2022-09-09T07:14:03;31.80;74.70
12688;DHT22;6408;59.388;17.798;2022-09-09T07:16:30;28.50;80.30
12688;DHT22;6408;59.388;17.798;2022-09-09T07:19:01;31.20;76.00
12688;DHT22;6408;59.388;17.798;2022-09-09T07:21:29;26.20;83.40
12688;DHT22;6408;59.388;17.798;2022-09-09T07:23:57;22.50;89.50
12688;DHT22;6408;59.388;17.798;2022-09-09T07:26:26;20.40;91.50
12688;DHT22;6408;59.388;17.798;2022-09-09T07:28:55;20.60;92.20
12688;DHT22;6408;59.388;17.798;2022-09-09T07:31:26;24.00;87.50
12688;DHT22;6408;59.388;17.798;2022-09-09T07:33:56;21.50;91.10
12688;DHT22;6408;59.388;17.798;2022-09-09T07:36:25;20.40;92.30
12688;DHT22;6408;59.388;17.798;2022-09-09T07:38:54;18.80;93.30
12688;DHT22;6408;59.388;17.798;2022-09-09T07:41:25;19.20;93.50
12688;DHT22;6408;59.388;17.798;2022-09-09T07:43:54;18.40;94.90
12688;DHT22;6408;59.388;17.798;2022-09-09T07:46:25;22.50;92.10
12688;DHT22;6408;59.388;17.798;2022-09-09T07:48:54;23.00;91.50
12688;DHT22;6408;59.388;17.798;2022-09-09T07:51:25;24.30;91.10
12688;DHT22;6408;59.388;17.798;2022-09-09T07:53:54;27.50;86.30
12688;DHT22;6408;59.388;17.798;2022-09-09T07:56:23;24.30;90.50
12688;DHT22;6408;59.388;17.798;2022-09-09T07:58:52;20.90;91.60
12688;DHT22;6408;59.388;17.798;2022-09-09T08:01:22;25.70;85.20
12688;DHT22;6408;59.388;17.798;2022-09-09T08:03:56;30.40;79.30
12688;DHT22;6408;59.388;17.798;2022-09-09T08:06:28;33.40;74.20
12688;DHT22;6408;59.388;17.798;2022-09-09T08:08:56;28.10;80.70
12688;DHT22;6408;59.388;17.798;2022-09-09T08:11:26;23.90;88.10
12688;DHT22;6408;59.388;17.798;2022-09-09T08:13:55;23.40;89.00
12688;DHT22;6408;59.388;17.798;2022-09-09T08:16:24;24.20;85.70
12688;DHT22;6408;59.388;17.798;2022-09-09T08:18:54;21.40;90.60
12688;DHT22;6408;59.388;17.798;2022-09-09T08:21:27;20.60;91.80
12688;DHT22;6408;59.388;17.798;2022-09-09T08:23:58;18.70;94.00
12688;DHT22;6408;59.388;17.798;2022-09-09T08:26:28;17.80;94.70
12688;DHT22;6408;59.388;17.798;2022-09-09T08:28:58;17.20;95.60
12688;DHT22;6408;59.388;17.798;2022-09-09T08:31:26;16.70;96.00
12688;DHT22;6408;59.388;17.798;2022-09-09T08:33:58;16.70;96.50
12688;DHT22;6408;59.388;17.798;2022-09-09T08:36:28;16.80;96.00
12688;DHT22;6408;59.388;17.798;2022-09-09T08:38:57;16.70;96.40
12688;DHT22;6408;59.388;17.798;2022-09-09T08:42:07;18.20;95.40
12688;DHT22;6408;59.388;17.798;2022-09-09T08:48:06;16.70;95.20
12688;DHT22;6408;59.388;17.798;2022-09-09T08:50:41;16.80;95.60
12688;DHT22;6408;59.388;17.798;2022-09-09T08:53:13;18.30;94.60
12688;DHT22;6408;59.388;17.798;2022-09-09T08:55:47;18.30;94.10
12688;DHT22;6408;59.388;17.798;2022-09-09T08:58:18;17.60;94.60
12688;DHT22;6408;59.388;17.798;2022-09-09T09:01:05;20.10;92.90
12688;DHT22;6408;59.388;17.798;2022-09-09T09:03:46;26.80;86.70
12688;DHT22;6408;59.388;17.798;2022-09-09T09:06:30;25.20;86.70
12688;DHT22;6408;59.388;17.798;2022-09-09T09:09:08;24.20;89.00
12688;DHT22;6408;59.388;17.798;2022-09-09T09:11:39;20.10;92.50
12688;DHT22;6408;59.388;17.798;2022-09-09T09:14:10;19.10;93.70
12688;DHT22;6408;59.388;17.798;2022-09-09T09:16:41;17.90;95.40
12688;DHT22;6408;59.388;17.798;2022-09-09T09:19:20;18.80;95.70
12688;DHT22;6408;59.388;17.798;2022-09-09T09:21:59;19.00;95.30
12688;DHT22;6408;59.388;17.798;2022-09-09T09:24:34;18.10;96.10
12688;DHT22;6408;59.388;17.798;2022-09-09T09:27:11;17.30;97.00
12688;DHT22;6408;59.388;17.798;2022-09-09T09:29:40;17.20;97.40
12688;DHT22;6408;59.388;17.798;2022-09-09T09:32:12;17.00;97.50
12688;DHT22;6408;59.388;17.798;2022-09-09T09:34:48;17.00;97.80
12688;DHT22;6408;59.388;17.798;2022-09-09T09:37:26;17.20;98.10
12688;DHT22;6408;59.388;17.798;2022-09-09T09:39:55;17.40;97.70
12688;DHT22;6408;59.388;17.798;2022-09-09T09:42:23;17.40;97.70
12688;DHT22;6408;59.388;17.798;2022-09-09T09:45:08;17.50;96.60
12688;DHT22;6408;59.388;17.798;2022-09-09T09:47:39;17.50;97.00
12688;DHT22;6408;59.388;17.798;2022-09-09T09:50:16;17.80;96.90
12688;DHT22;6408;59.388;17.798;2022-09-09T09:52:53;18.20;96.80
12688;DHT22;6408;59.388;17.798;2022-09-09T09:55:22;18.00;97.10
12688;DHT22;6408;59.388;17.798;2022-09-09T09:57:50;18.10;97.40
12688;DHT22;6408;59.388;17.798;2022-09-09T10:00:21;18.00;96.80
12688;DHT22;6408;59.388;17.798;2022-09-09T10:02:50;18.20;96.30
12688;DHT22;6408;59.388;17.798;2022-09-09T10:05:20;18.40;96.50
12688;DHT22;6408;59.388;17.798;2022-09-09T10:08:00;18.20;96.60
12688;DHT22;6408;59.388;17.798;2022-09-09T10:10:37;18.10;96.90
12688;DHT22;6408;59.388;17.798;2022-09-09T10:13:13;18.40;97.00
12688;DHT22;6408;59.388;17.798;2022-09-09T10:15:47;18.60;96.30
12688;DHT22;6408;59.388;17.798;2022-09-09T10:18:36;18.50;96.40
12688;DHT22;6408;59.388;17.798;2022-09-09T10:21:17;18.50;96.50
12688;DHT22;6408;59.388;17.798;2022-09-09T10:24:04;19.00;96.60
12688;DHT22;6408;59.388;17.798;2022-09-09T10:26:42;19.20;96.30
12688;DHT22;6408;59.388;17.798;2022-09-09T10:29:31;19.20;96.70
12688;DHT22;6408;59.388;17.798;2022-09-09T10:32:07;19.30;96.20
12688;DHT22;6408;59.388;17.798;2022-09-09T10:35:02;18.80;96.30
12688;DHT22;6408;59.388;17.798;2022-09-09T10:37:51;18.60;96.60
12688;DHT22;6408;59.388;17.798;2022-09-09T10:40:32;18.60;97.40
12688;DHT22;6408;59.388;17.798;2022-09-09T10:43:08;18.70;96.60
12688;DHT22;6408;59.388;17.798;2022-09-09T10:45:43;18.20;96.00
12688;DHT22;6408;59.388;17.798;2022-09-09T10:48:21;18.10;96.60
12688;DHT22;6408;59.388;17.798;2022-09-09T10:50:56;18.50;97.30
12688;DHT22;6408;59.388;17.798;2022-09-09T10:53:35;18.50;96.80
12688;DHT22;6408;59.388;17.798;2022-09-09T10:56:09;18.40;97.40
12688;DHT22;6408;59.388;17.798;2022-09-09T10:58:40;18.10;96.90
12688;DHT22;6408;59.388;17.798;2022-09-09T11:01:15;17.80;96.60
12688;DHT22;6408;59.388;17.798;2022-09-09T11:03:43;17.70;96.90
12688;DHT22;6408;59.388;17.798;2022-09-09T11:06:18;18.10;97.40
12688;DHT22;6408;59.388;17.798;2022-09-09T11:08:48;18.50;97.20
12688;DHT22;6408;59.388;17.798;2022-09-09T11:11:21;18.60;96.90
12688;DHT22;6408;59.388;17.798;2022-09-09T11:13:55;18.10;97.20
12688;DHT22;6408;59.388;17.798;2022-09-09T11:16:29;17.80;97.80
12688;DHT22;6408;59.388;17.798;2022-09-09T11:19:02;18.00;97.80
12688;DHT22;6408;59.388;17.798;2022-09-09T11:21:34;17.80;98.00
12688;DHT22;6408;59.388;17.798;2022-09-09T11:24:10;17.90;98.00
12688;DHT22;6408;59.388;17.798;2022-09-09T11:26:46;18.20;98.10
12688;DHT22;6408;59.388;17.798;2022-09-09T11:29:44;17.90;98.40
12688;DHT22;6408;59.388;17.798;2022-09-09T11:32:40;17.90;98.40
12688;DHT22;6408;59.388;17.798;2022-09-09T11:35:24;18.10;98.20
12688;DHT22;6408;59.388;17.798;2022-09-09T11:38:19;18.10;98.60
12688;DHT22;6408;59.388;17.798;2022-09-09T11:40:55;17.90;97.50
12688;DHT22;6408;59.388;17.798;2022-09-09T11:43:28;17.80;97.90
12688;DHT22;6408;59.388;17.798;2022-09-09T11:45:58;17.80;98.20
12688;DHT22;6408;59.388;17.798;2022-09-09T11:48:34;17.90;97.40
12688;DHT22;6408;59.388;17.798;2022-09-09T11:51:28;18.00;98.00
12688;DHT22;6408;59.388;17.798;2022-09-09T11:53:57;17.80;97.90
12688;DHT22;6408;59.388;17.798;2022-09-09T11:56:29;17.70;98.30
12688;DHT22;6408;59.388;17.798;2022-09-09T11:59:03;17.60;98.70
12688;DHT22;6408;59.388;17.798;2022-09-09T12:01:40;17.50;98.70
12688;DHT22;6408;59.388;17.798;2022-09-09T12:07:00;17.40;99.10
12688;DHT22;6408;59.388;17.798;2022-09-09T12:09:43;17.70;99.10
12688;DHT22;6408;59.388;17.798;2022-09-09T12:12:24;17.70;98.80
12688;DHT22;6408;59.388;17.798;2022-09-09T12:15:02;17.70;98.80
12688;DHT22;6408;59.388;17.798;2022-09-09T12:17:31;17.70;98.70
12688;DHT22;6408;59.388;17.798;2022-09-09T12:20:12;17.50;98.90
12688;DHT22;6408;59.388;17.798;2022-09-09T12:25:37;17.60;99.20
12688;DHT22;6408;59.388;17.798;2022-09-09T12:28:12;17.70;99.50
12688;DHT22;6408;59.388;17.798;2022-09-09T12:30:48;17.90;99.50
12688;DHT22;6408;59.388;17.798;2022-09-09T12:33:18;18.00;99.30
12688;DHT22;6408;59.388;17.798;2022-09-09T12:35:52;18.00;98.70
12688;DHT22;6408;59.388;17.798;2022-09-09T12:38:30;17.80;99.00
12688;DHT22;6408;59.388;17.798;2022-09-09T12:40:59;17.80;99.90
12688;DHT22;6408;59.388;17.798;2022-09-09T12:43:28;17.80;99.10
12688;DHT22;6408;59.388;17.798;2022-09-09T12:46:00;17.80;99.90
12688;DHT22;6408;59.388;17.798;2022-09-09T12:51:19;17.60;99.80
12688;DHT22;6408;59.388;17.798;2022-09-09T12:53:48;17.80;99.90
12688;DHT22;6408;59.388;17.798;2022-09-09T12:56:21;17.60;99.90
12688;DHT22;6408;59.388;17.798;2022-09-09T12:59:03;17.50;99.90
12688;DHT22;6408;59.388;17.798;2022-09-09T13:01:33;17.40;99.90
12688;DHT22;6408;59.388;17.798;2022-09-09T13:04:00;17.40;99.90
12688;DHT22;6408;59.388;17.798;2022-09-09T13:06:36;17.30;99.90
12688;DHT22;6408;59.388;17.798;2022-09-09T13:09:04;17.20;99.90
12688;DHT22;6408;59.388;17.798;2022-09-09T13:11:38;17.30;99.90
12688;DHT22;6408;59.388;17.798;2022-09-09T13:14:16;17.30;99.90
12688;DHT22;6408;59.388;17.798;2022-09-09T13:16:57;17.20;99.90
12688;DHT22;6408;59.388;17.798;2022-09-09T13:19:30;17.20;99.90
12688;DHT22;6408;59.388;17.798;2022-09-09T13:21:59;17.20;99.90
12688;DHT22;6408;59.388;17.798;2022-09-09T13:24:30;16.90;99.90
12688;DHT22;6408;59.388;17.798;2022-09-09T13:27:00;16.80;99.90
12688;DHT22;6408;59.388;17.798;2022-09-09T13:29:30;16.80;99.90
12688;DHT22;6408;59.388;17.798;2022-09-09T13:32:05;16.90;99.90
12688;DHT22;6408;59.388;17.798;2022-09-09T13:34:34;17.20;99.90
12688;DHT22;6408;59.388;17.798;2022-09-09T13:37:04;17.40;99.90
12688;DHT22;6408;59.388;17.798;2022-09-09T13:39:34;17.10;99.90
12688;DHT22;6408;59.388;17.798;2022-09-09T13:42:02;16.90;99.90
12688;DHT22;6408;59.388;17.798;2022-09-09T13:44:33;16.80;99.90
12688;DHT22;6408;59.388;17.798;2022-09-09T13:47:05;16.80;99.90
12688;DHT22;6408;59.388;17.798;2022-09-09T13:49:33;16.60;99.90
12688;DHT22;6408;59.388;17.798;2022-09-09T13:52:08;16.70;99.90
12688;DHT22;6408;59.388;17.798;2022-09-09T13:54:37;16.80;99.90
12688;DHT22;6408;59.388;17.798;2022-09-09T13:57:05;16.90;99.90
12688;DHT22;6408;59.388;17.798;2022-09-09T13:59:32;17.00;99.90
12688;DHT22;6408;59.388;17.798;2022-09-09T14:01:59;17.10;99.90
12688;DHT22;6408;59.388;17.798;2022-09-09T14:04:28;17.10;99.90
12688;DHT22;6408;59.388;17.798;2022-09-09T14:06:56;17.10;99.90
12688;DHT22;6408;59.388;17.798;2022-09-09T14:09:25;16.90;99.90
12688;DHT22;6408;59.388;17.798;2022-09-09T14:11:53;16.70;99.90
12688;DHT22;6408;59.388;17.798;2022-09-09T14:14:20;16.70;99.90
12688;DHT22;6408;59.388;17.798;2022-09-09T14:16:48;16.90;99.90
12688;DHT22;6408;59.388;17.798;2022-09-09T14:19:15;17.00;99.90
12688;DHT22;6408;59.388;17.798;2022-09-09T14:21:45;17.20;99.90
12688;DHT22;6408;59.388;17.798;2022-09-09T14:24:12;17.00;99.90
12688;DHT22;6408;59.388;17.798;2022-09-09T14:26:40;16.90;99.90
12688;DHT22;6408;59.388;17.798;2022-09-09T14:29:11;16.80;99.90
12688;DHT22;6408;59.388;17.798;2022-09-09T14:31:38;16.70;99.90
12688;DHT22;6408;59.388;17.798;2022-09-09T14:34:05;16.70;99.90
12688;DHT22;6408;59.388;17.798;2022-09-09T14:36:32;16.60;99.90
12688;DHT22;6408;59.388;17.798;2022-09-09T14:39:01;16.50;99.90
12688;DHT22;6408;59.388;17.798;2022-09-09T14:41:28;16.60;99.90
12688;DHT22;6408;59.388;17.798;2022-09-09T14:43:55;16.60;99.90
12688;DHT22;6408;59.388;17.798;2022-09-09T14:46:22;16.50;99.90
12688;DHT22;6408;59.388;17.798;2022-09-09T14:48:50;16.60;99.90
12688;DHT22;6408;59.388;17.798;2022-09-09T14:51:20;16.60;99.90
12688;DHT22;6408;59.388;17.798;2022-09-09T14:53:51;16.50;99.90
12688;DHT22;6408;59.388;17.798;2022-09-09T14:56:23;16.50;99.90
12688;DHT22;6408;59.388;17.798;2022-09-09T14:58:53;16.60;99.90
12688;DHT22;6408;59.388;17.798;2022-09-09T15:01:22;16.50;99.90
12688;DHT22;6408;59.388;17.798;2022-09-09T15:03:53;16.50;99.90
12688;DHT22;6408;59.388;17.798;2022-09-09T15:06:24;16.40;99.90
12688;DHT22;6408;59.388;17.798;2022-09-09T15:08:53;16.40;99.90
12688;DHT22;6408;59.388;17.798;2022-09-09T15:11:26;16.20;99.90
12688;DHT22;6408;59.388;17.798;2022-09-09T15:13:56;16.30;99.90
12688;DHT22;6408;59.388;17.798;2022-09-09T15:16:26;16.30;99.90
12688;DHT22;6408;59.388;17.798;2022-09-09T15:18:55;16.30;99.90
12688;DHT22;6408;59.388;17.798;2022-09-09T15:21:27;16.30;99.90
12688;DHT22;6408;59.388;17.798;2022-09-09T15:23:56;16.40;99.90
12688;DHT22;6408;59.388;17.798;2022-09-09T15:26:25;16.50;99.90
12688;DHT22;6408;59.388;17.798;2022-09-09T15:28:54;16.60;99.90
12688;DHT22;6408;59.388;17.798;2022-09-09T15:31:23;16.70;99.90
12688;DHT22;6408;59.388;17.798;2022-09-09T15:33:51;16.70;99.90
12688;DHT22;6408;59.388;17.798;2022-09-09T15:36:20;16.80;99.90
12688;DHT22;6408;59.388;17.798;2022-09-09T15:38:48;16.90;99.90
12688;DHT22;6408;59.388;17.798;2022-09-09T15:41:18;16.70;99.90
12688;DHT22;6408;59.388;17.798;2022-09-09T15:43:53;16.70;99.90
12688;DHT22;6408;59.388;17.798;2022-09-09T15:46:38;16.60;99.90
12688;DHT22;6408;59.388;17.798;2022-09-09T15:49:07;16.40;99.90
12688;DHT22;6408;59.388;17.798;2022-09-09T15:51:37;16.20;99.90
12688;DHT22;6408;59.388;17.798;2022-09-09T15:54:09;16.10;99.90
12688;DHT22;6408;59.388;17.798;2022-09-09T15:56:36;16.10;99.90
12688;DHT22;6408;59.388;17.798;2022-09-09T15:59:06;16.10;99.90
12688;DHT22;6408;59.388;17.798;2022-09-09T16:01:45;16.10;99.90
12688;DHT22;6408;59.388;17.798;2022-09-09T16:04:12;15.90;99.90
12688;DHT22;6408;59.388;17.798;2022-09-09T16:06:41;15.80;99.90
12688;DHT22;6408;59.388;17.798;2022-09-09T16:09:08;15.80;99.90
12688;DHT22;6408;59.388;17.798;2022-09-09T16:11:37;15.70;99.90
12688;DHT22;6408;59.388;17.798;2022-09-09T16:14:07;15.80;99.90